Riverhead, New York
Current Conditions -  °F | °C
As of 3:53 AM on Friday 28 Nov 2014 (Local Time) from KFOK Reporting Station
Broken Clouds Broken Clouds  
Wind Chill: 25°   Ceiling: 6000
Heat Index: 33°   Visibility: 10mi
Dew Point: 23°   Wind: 10mph
Humidity: 66%   Direction: 310°NW
Pressure: 30.04"   Gusts: NA
Location:  40.94°N, 72.64°W
Report Text: KFOK 280853Z AUTO 31009KT 10SM BKN060 01/M05 A3004 RMK AO2 SLP173 T00061050 50005 TSNO
Loading
Personal Weather Stations






























Interactive Weather Map New forecast layout! Learn more

10-Day Weather Forecast

Advertisements
Track Severe Weather on mobile